sensor_id;sensor_type;location;lat;lon;timestamp;temperature;humidity
9393;DHT22;4736;52.508;13.422;2023-04-03T00:00:33;1.00;64.60
9393;DHT22;4736;52.508;13.422;2023-04-03T00:03:37;1.00;64.40
9393;DHT22;4736;52.508;13.422;2023-04-03T00:06:43;1.00;64.70
9393;DHT22;4736;52.508;13.422;2023-04-03T00:09:46;1.00;64.70
9393;DHT22;4736;52.508;13.422;2023-04-03T00:12:50;1.00;64.60
9393;DHT22;4736;52.508;13.422;2023-04-03T00:15:54;0.90;64.60
9393;DHT22;4736;52.508;13.422;2023-04-03T00:18:57;0.90;64.50
9393;DHT22;4736;52.508;13.422;2023-04-03T00:22:00;0.80;64.70
9393;DHT22;4736;52.508;13.422;2023-04-03T00:25:04;0.80;64.70
9393;DHT22;4736;52.508;13.422;2023-04-03T00:28:09;0.80;64.70
9393;DHT22;4736;52.508;13.422;2023-04-03T00:31:14;0.80;64.70
9393;DHT22;4736;52.508;13.422;2023-04-03T00:34:18;0.80;64.50
9393;DHT22;4736;52.508;13.422;2023-04-03T00:37:21;0.80;64.80
9393;DHT22;4736;52.508;13.422;2023-04-03T00:40:25;0.80;64.40
9393;DHT22;4736;52.508;13.422;2023-04-03T00:43:30;0.80;64.60
9393;DHT22;4736;52.508;13.422;2023-04-03T00:46:33;0.80;64.70
9393;DHT22;4736;52.508;13.422;2023-04-03T00:49:37;0.80;64.60
9393;DHT22;4736;52.508;13.422;2023-04-03T00:52:41;0.70;64.60
9393;DHT22;4736;52.508;13.422;2023-04-03T00:55:44;0.70;64.60
9393;DHT22;4736;52.508;13.422;2023-04-03T00:58:52;0.60;64.60
9393;DHT22;4736;52.508;13.422;2023-04-03T01:02:00;0.60;64.60
9393;DHT22;4736;52.508;13.422;2023-04-03T01:05:04;0.60;64.70
9393;DHT22;4736;52.508;13.422;2023-04-03T01:08:07;0.60;65.00
9393;DHT22;4736;52.508;13.422;2023-04-03T01:11:11;0.60;64.80
9393;DHT22;4736;52.508;13.422;2023-04-03T01:14:15;0.50;65.00
9393;DHT22;4736;52.508;13.422;2023-04-03T01:17:28;0.50;65.10
9393;DHT22;4736;52.508;13.422;2023-04-03T01:24:30;0.60;64.70
9393;DHT22;4736;52.508;13.422;2023-04-03T01:27:34;0.50;64.80
9393;DHT22;4736;52.508;13.422;2023-04-03T01:30:42;0.50;65.00
9393;DHT22;4736;52.508;13.422;2023-04-03T01:33:48;0.40;65.20
9393;DHT22;4736;52.508;13.422;2023-04-03T01:36:52;0.40;65.40
9393;DHT22;4736;52.508;13.422;2023-04-03T01:39:55;0.40;65.40
9393;DHT22;4736;52.508;13.422;2023-04-03T01:42:58;0.40;65.60
9393;DHT22;4736;52.508;13.422;2023-04-03T01:46:01;0.40;65.90
9393;DHT22;4736;52.508;13.422;2023-04-03T01:49:05;0.40;65.70
9393;DHT22;4736;52.508;13.422;2023-04-03T01:52:09;0.40;65.70
9393;DHT22;4736;52.508;13.422;2023-04-03T01:55:12;0.30;65.80
9393;DHT22;4736;52.508;13.422;2023-04-03T01:58:17;0.30;65.90
9393;DHT22;4736;52.508;13.422;2023-04-03T02:01:20;0.30;65.90
9393;DHT22;4736;52.508;13.422;2023-04-03T02:04:24;0.30;66.10
9393;DHT22;4736;52.508;13.422;2023-04-03T02:07:27;0.20;66.20
9393;DHT22;4736;52.508;13.422;2023-04-03T02:10:30;0.20;66.70
9393;DHT22;4736;52.508;13.422;2023-04-03T02:13:34;0.20;66.60
9393;DHT22;4736;52.508;13.422;2023-04-03T02:16:37;0.20;66.90
9393;DHT22;4736;52.508;13.422;2023-04-03T02:19:41;0.10;66.90
9393;DHT22;4736;52.508;13.422;2023-04-03T02:22:45;0.10;66.80
9393;DHT22;4736;52.508;13.422;2023-04-03T02:25:49;0.00;66.80
9393;DHT22;4736;52.508;13.422;2023-04-03T02:28:52;0.00;67.00
9393;DHT22;4736;52.508;13.422;2023-04-03T02:31:55;0.00;67.00
9393;DHT22;4736;52.508;13.422;2023-04-03T02:34:59;0.00;67.10
9393;DHT22;4736;52.508;13.422;2023-04-03T02:38:02;0.00;67.40
9393;DHT22;4736;52.508;13.422;2023-04-03T02:41:11;0.00;67.50
9393;DHT22;4736;52.508;13.422;2023-04-03T02:44:15;0.00;67.50
9393;DHT22;4736;52.508;13.422;2023-04-03T02:47:18;0.00;67.50
9393;DHT22;4736;52.508;13.422;2023-04-03T02:50:23;0.00;67.50
9393;DHT22;4736;52.508;13.422;2023-04-03T02:53:26;0.00;67.40
9393;DHT22;4736;52.508;13.422;2023-04-03T02:56:29;0.00;67.50
9393;DHT22;4736;52.508;13.422;2023-04-03T02:59:32;0.00;67.50
9393;DHT22;4736;52.508;13.422;2023-04-03T03:02:35;0.00;67.60
9393;DHT22;4736;52.508;13.422;2023-04-03T03:05:39;0.00;67.50
9393;DHT22;4736;52.508;13.422;2023-04-03T03:08:43;0.00;67.70
9393;DHT22;4736;52.508;13.422;2023-04-03T03:11:47;0.00;67.70
9393;DHT22;4736;52.508;13.422;2023-04-03T03:14:51;0.00;67.60
9393;DHT22;4736;52.508;13.422;2023-04-03T03:17:54;0.00;67.50
9393;DHT22;4736;52.508;13.422;2023-04-03T03:21:00;0.00;67.70
9393;DHT22;4736;52.508;13.422;2023-04-03T03:24:04;-0.10;67.70
9393;DHT22;4736;52.508;13.422;2023-04-03T03:27:07;-0.10;67.80
9393;DHT22;4736;52.508;13.422;2023-04-03T03:30:13;-0.10;67.80
9393;DHT22;4736;52.508;13.422;2023-04-03T03:33:17;-0.10;67.80
9393;DHT22;4736;52.508;13.422;2023-04-03T03:36:21;-0.10;67.70
9393;DHT22;4736;52.508;13.422;2023-04-03T03:39:24;-0.10;68.00
9393;DHT22;4736;52.508;13.422;2023-04-03T03:42:27;-0.10;68.00
9393;DHT22;4736;52.508;13.422;2023-04-03T03:45:31;-0.10;67.80
9393;DHT22;4736;52.508;13.422;2023-04-03T03:48:34;-0.10;67.80
9393;DHT22;4736;52.508;13.422;2023-04-03T03:51:39;-0.10;68.00
9393;DHT22;4736;52.508;13.422;2023-04-03T03:54:43;-0.10;67.80
9393;DHT22;4736;52.508;13.422;2023-04-03T03:57:46;-0.10;67.90
9393;DHT22;4736;52.508;13.422;2023-04-03T04:00:49;-0.10;68.10
9393;DHT22;4736;52.508;13.422;2023-04-03T04:03:52;-0.10;67.90
9393;DHT22;4736;52.508;13.422;2023-04-03T04:06:58;-0.10;67.80
9393;DHT22;4736;52.508;13.422;2023-04-03T04:10:02;-0.10;68.00
9393;DHT22;4736;52.508;13.422;2023-04-03T04:13:06;-0.20;67.80
9393;DHT22;4736;52.508;13.422;2023-04-03T04:16:09;-0.20;67.80
9393;DHT22;4736;52.508;13.422;2023-04-03T04:19:13;-0.20;67.80
9393;DHT22;4736;52.508;13.422;2023-04-03T04:22:17;-0.20;67.80
9393;DHT22;4736;52.508;13.422;2023-04-03T04:25:20;-0.20;68.10
9393;DHT22;4736;52.508;13.422;2023-04-03T04:28:23;-0.20;67.80
9393;DHT22;4736;52.508;13.422;2023-04-03T04:31:26;-0.20;68.10
9393;DHT22;4736;52.508;13.422;2023-04-03T04:34:30;-0.30;68.20
9393;DHT22;4736;52.508;13.422;2023-04-03T04:37:34;-0.30;68.40
9393;DHT22;4736;52.508;13.422;2023-04-03T04:40:37;-0.30;68.30
9393;DHT22;4736;52.508;13.422;2023-04-03T04:43:40;-0.30;68.50
9393;DHT22;4736;52.508;13.422;2023-04-03T04:46:43;-0.40;68.60
9393;DHT22;4736;52.508;13.422;2023-04-03T04:49:46;-0.30;68.60
9393;DHT22;4736;52.508;13.422;2023-04-03T04:52:52;-0.30;68.90
9393;DHT22;4736;52.508;13.422;2023-04-03T04:55:56;-0.30;68.90
9393;DHT22;4736;52.508;13.422;2023-04-03T04:58:59;-0.30;68.80
9393;DHT22;4736;52.508;13.422;2023-04-03T05:02:02;-0.30;69.00
9393;DHT22;4736;52.508;13.422;2023-04-03T05:05:06;-0.30;69.00
9393;DHT22;4736;52.508;13.422;2023-04-03T05:08:10;-0.20;69.00
9393;DHT22;4736;52.508;13.422;2023-04-03T05:11:13;-0.10;68.90
9393;DHT22;4736;52.508;13.422;2023-04-03T05:14:16;-0.10;68.90
9393;DHT22;4736;52.508;13.422;2023-04-03T05:17:19;-0.10;68.90
9393;DHT22;4736;52.508;13.422;2023-04-03T05:20:23;-0.10;68.90
9393;DHT22;4736;52.508;13.422;2023-04-03T05:23:27;-0.10;68.70
9393;DHT22;4736;52.508;13.422;2023-04-03T05:26:31;0.00;68.60
9393;DHT22;4736;52.508;13.422;2023-04-03T05:29:34;0.00;68.40
9393;DHT22;4736;52.508;13.422;2023-04-03T05:32:37;0.00;68.40
9393;DHT22;4736;52.508;13.422;2023-04-03T05:35:40;0.00;68.30
9393;DHT22;4736;52.508;13.422;2023-04-03T05:38:47;0.10;68.00
9393;DHT22;4736;52.508;13.422;2023-04-03T05:41:51;0.20;68.20
9393;DHT22;4736;52.508;13.422;2023-04-03T05:44:54;0.20;68.10
9393;DHT22;4736;52.508;13.422;2023-04-03T05:47:57;0.20;68.00
9393;DHT22;4736;52.508;13.422;2023-04-03T05:51:00;0.30;67.70
9393;DHT22;4736;52.508;13.422;2023-04-03T05:54:12;0.30;67.60
9393;DHT22;4736;52.508;13.422;2023-04-03T05:57:16;0.40;67.70
9393;DHT22;4736;52.508;13.422;2023-04-03T06:00:20;0.50;67.40
9393;DHT22;4736;52.508;13.422;2023-04-03T06:03:23;0.60;67.50
9393;DHT22;4736;52.508;13.422;2023-04-03T06:06:43;0.60;67.20
9393;DHT22;4736;52.508;13.422;2023-04-03T06:09:48;0.70;67.00
9393;DHT22;4736;52.508;13.422;2023-04-03T06:12:51;0.80;67.10
9393;DHT22;4736;52.508;13.422;2023-04-03T06:15:54;1.10;66.00
9393;DHT22;4736;52.508;13.422;2023-04-03T06:18:58;1.30;65.80
9393;DHT22;4736;52.508;13.422;2023-04-03T06:22:01;1.40;64.90
9393;DHT22;4736;52.508;13.422;2023-04-03T06:25:07;1.80;65.80
9393;DHT22;4736;52.508;13.422;2023-04-03T06:28:11;2.70;63.40
9393;DHT22;4736;52.508;13.422;2023-04-03T06:31:16;3.10;61.60
9393;DHT22;4736;52.508;13.422;2023-04-03T06:34:19;3.10;60.50
9393;DHT22;4736;52.508;13.422;2023-04-03T06:37:23;3.00;60.00
9393;DHT22;4736;52.508;13.422;2023-04-03T06:40:29;2.90;60.70
9393;DHT22;4736;52.508;13.422;2023-04-03T06:43:32;2.90;60.70
9393;DHT22;4736;52.508;13.422;2023-04-03T06:46:35;2.80;60.70
9393;DHT22;4736;52.508;13.422;2023-04-03T06:49:39;2.90;60.20
9393;DHT22;4736;52.508;13.422;2023-04-03T06:52:43;2.90;60.10
9393;DHT22;4736;52.508;13.422;2023-04-03T06:55:47;3.50;60.50
9393;DHT22;4736;52.508;13.422;2023-04-03T06:58:51;4.40;57.50
9393;DHT22;4736;52.508;13.422;2023-04-03T07:01:56;4.50;56.70
9393;DHT22;4736;52.508;13.422;2023-04-03T07:05:00;4.30;56.20
9393;DHT22;4736;52.508;13.422;2023-04-03T07:08:03;4.40;56.30
9393;DHT22;4736;52.508;13.422;2023-04-03T07:11:08;5.40;55.00
9393;DHT22;4736;52.508;13.422;2023-04-03T07:14:11;5.50;53.30
9393;DHT22;4736;52.508;13.422;2023-04-03T07:17:16;5.20;52.80
9393;DHT22;4736;52.508;13.422;2023-04-03T07:20:19;4.80;52.80
9393;DHT22;4736;52.508;13.422;2023-04-03T07:23:23;4.50;53.50
9393;DHT22;4736;52.508;13.422;2023-04-03T07:26:27;4.30;53.90
9393;DHT22;4736;52.508;13.422;2023-04-03T07:29:31;4.30;53.70
9393;DHT22;4736;52.508;13.422;2023-04-03T07:32:34;4.20;53.60
9393;DHT22;4736;52.508;13.422;2023-04-03T07:35:38;4.20;54.00
9393;DHT22;4736;52.508;13.422;2023-04-03T07:38:42;4.40;53.80
9393;DHT22;4736;52.508;13.422;2023-04-03T07:41:46;4.30;53.60
9393;DHT22;4736;52.508;13.422;2023-04-03T07:44:49;4.30;53.80
9393;DHT22;4736;52.508;13.422;2023-04-03T07:47:53;4.20;54.00
9393;DHT22;4736;52.508;13.422;2023-04-03T07:50:59;4.10;53.70
9393;DHT22;4736;52.508;13.422;2023-04-03T07:54:02;4.10;53.20
9393;DHT22;4736;52.508;13.422;2023-04-03T07:57:08;4.20;53.40
9393;DHT22;4736;52.508;13.422;2023-04-03T08:00:12;4.10;52.90
9393;DHT22;4736;52.508;13.422;2023-04-03T08:03:16;4.10;52.60
9393;DHT22;4736;52.508;13.422;2023-04-03T08:06:19;4.20;52.20
9393;DHT22;4736;52.508;13.422;2023-04-03T08:09:38;4.30;52.10
9393;DHT22;4736;52.508;13.422;2023-04-03T08:12:45;4.40;52.30
9393;DHT22;4736;52.508;13.422;2023-04-03T08:15:49;4.40;52.50
9393;DHT22;4736;52.508;13.422;2023-04-03T08:18:52;4.40;52.60
9393;DHT22;4736;52.508;13.422;2023-04-03T08:21:56;4.40;53.40
9393;DHT22;4736;52.508;13.422;2023-04-03T08:25:00;4.50;52.80
9393;DHT22;4736;52.508;13.422;2023-04-03T08:28:04;4.60;52.30
9393;DHT22;4736;52.508;13.422;2023-04-03T08:31:10;4.70;52.30
9393;DHT22;4736;52.508;13.422;2023-04-03T08:34:14;4.70;52.20
9393;DHT22;4736;52.508;13.422;2023-04-03T08:37:17;4.70;52.10
9393;DHT22;4736;52.508;13.422;2023-04-03T08:40:20;4.80;52.20
9393;DHT22;4736;52.508;13.422;2023-04-03T08:43:33;4.80;51.70
9393;DHT22;4736;52.508;13.422;2023-04-03T08:46:52;4.70;50.90
9393;DHT22;4736;52.508;13.422;2023-04-03T08:50:00;4.50;51.70
9393;DHT22;4736;52.508;13.422;2023-04-03T08:53:06;4.50;51.40
9393;DHT22;4736;52.508;13.422;2023-04-03T08:56:15;4.50;51.40
9393;DHT22;4736;52.508;13.422;2023-04-03T08:59:26;4.50;51.50
9393;DHT22;4736;52.508;13.422;2023-04-03T09:02:33;4.50;51.50
9393;DHT22;4736;52.508;13.422;2023-04-03T09:05:43;4.60;51.70
9393;DHT22;4736;52.508;13.422;2023-04-03T09:08:51;4.70;51.50
9393;DHT22;4736;52.508;13.422;2023-04-03T09:12:06;4.70;51.40
9393;DHT22;4736;52.508;13.422;2023-04-03T09:15:20;4.80;51.20
9393;DHT22;4736;52.508;13.422;2023-04-03T09:18:42;5.10;49.90
9393;DHT22;4736;52.508;13.422;2023-04-03T09:21:49;5.50;48.70
9393;DHT22;4736;52.508;13.422;2023-04-03T09:24:57;5.70;47.30
9393;DHT22;4736;52.508;13.422;2023-04-03T09:28:01;5.50;47.60
9393;DHT22;4736;52.508;13.422;2023-04-03T09:31:18;5.30;48.00
9393;DHT22;4736;52.508;13.422;2023-04-03T09:34:24;5.50;48.90
9393;DHT22;4736;52.508;13.422;2023-04-03T09:37:38;5.70;47.70
9393;DHT22;4736;52.508;13.422;2023-04-03T09:40:43;6.30;48.20
9393;DHT22;4736;52.508;13.422;2023-04-03T09:43:52;6.80;47.20
9393;DHT22;4736;52.508;13.422;2023-04-03T09:46:57;7.10;45.80
9393;DHT22;4736;52.508;13.422;2023-04-03T09:50:19;7.10;45.50
9393;DHT22;4736;52.508;13.422;2023-04-03T09:53:31;6.90;45.50
9393;DHT22;4736;52.508;13.422;2023-04-03T09:56:34;6.60;45.70
9393;DHT22;4736;52.508;13.422;2023-04-03T09:59:42;6.30;46.00
9393;DHT22;4736;52.508;13.422;2023-04-03T10:02:50;6.40;46.60
9393;DHT22;4736;52.508;13.422;2023-04-03T10:05:54;6.50;47.20
9393;DHT22;4736;52.508;13.422;2023-04-03T10:09:00;6.40;47.00
9393;DHT22;4736;52.508;13.422;2023-04-03T10:12:07;6.40;47.50
9393;DHT22;4736;52.508;13.422;2023-04-03T10:15:13;6.20;48.00
9393;DHT22;4736;52.508;13.422;2023-04-03T10:18:33;6.20;47.50
9393;DHT22;4736;52.508;13.422;2023-04-03T10:21:45;6.20;48.20
9393;DHT22;4736;52.508;13.422;2023-04-03T10:24:56;6.40;47.70
9393;DHT22;4736;52.508;13.422;2023-04-03T10:28:06;6.40;47.30
9393;DHT22;4736;52.508;13.422;2023-04-03T10:31:15;6.40;47.20
9393;DHT22;4736;52.508;13.422;2023-04-03T10:34:24;6.60;46.60
9393;DHT22;4736;52.508;13.422;2023-04-03T10:37:30;6.60;46.20
9393;DHT22;4736;52.508;13.422;2023-04-03T10:40:47;6.60;45.80
9393;DHT22;4736;52.508;13.422;2023-04-03T10:44:02;6.80;45.70
9393;DHT22;4736;52.508;13.422;2023-04-03T10:47:12;6.90;45.50
9393;DHT22;4736;52.508;13.422;2023-04-03T10:50:42;6.80;45.50
9393;DHT22;4736;52.508;13.422;2023-04-03T10:53:55;7.00;45.60
9393;DHT22;4736;52.508;13.422;2023-04-03T10:57:02;7.00;45.80
9393;DHT22;4736;52.508;13.422;2023-04-03T11:00:17;6.90;45.50
9393;DHT22;4736;52.508;13.422;2023-04-03T11:03:29;6.90;46.20
9393;DHT22;4736;52.508;13.422;2023-04-03T11:06:37;7.10;46.20
9393;DHT22;4736;52.508;13.422;2023-04-03T11:09:44;7.10;46.30
9393;DHT22;4736;52.508;13.422;2023-04-03T11:12:53;7.00;45.50
9393;DHT22;4736;52.508;13.422;2023-04-03T11:15:59;7.00;45.70
9393;DHT22;4736;52.508;13.422;2023-04-03T11:19:08;7.20;45.80
9393;DHT22;4736;52.508;13.422;2023-04-03T11:22:23;7.20;45.50
9393;DHT22;4736;52.508;13.422;2023-04-03T11:25:30;7.20;45.30
9393;DHT22;4736;52.508;13.422;2023-04-03T11:28:36;7.10;46.60
9393;DHT22;4736;52.508;13.422;2023-04-03T11:31:48;7.00;46.20
9393;DHT22;4736;52.508;13.422;2023-04-03T11:35:00;7.00;46.50
9393;DHT22;4736;52.508;13.422;2023-04-03T11:38:05;6.80;47.00
9393;DHT22;4736;52.508;13.422;2023-04-03T11:41:10;7.00;46.70
9393;DHT22;4736;52.508;13.422;2023-04-03T11:44:35;7.00;46.60
9393;DHT22;4736;52.508;13.422;2023-04-03T11:47:48;7.20;46.20
9393;DHT22;4736;52.508;13.422;2023-04-03T11:50:51;7.10;46.70
9393;DHT22;4736;52.508;13.422;2023-04-03T11:54:35;7.00;46.40
9393;DHT22;4736;52.508;13.422;2023-04-03T12:01:07;7.20;46.50
9393;DHT22;4736;52.508;13.422;2023-04-03T12:04:12;7.00;46.70
9393;DHT22;4736;52.508;13.422;2023-04-03T12:07:19;7.00;47.00
9393;DHT22;4736;52.508;13.422;2023-04-03T12:10:24;7.00;47.40
9393;DHT22;4736;52.508;13.422;2023-04-03T12:13:33;7.00;47.40
9393;DHT22;4736;52.508;13.422;2023-04-03T12:16:43;7.20;46.40
9393;DHT22;4736;52.508;13.422;2023-04-03T12:19:47;7.20;46.40
9393;DHT22;4736;52.508;13.422;2023-04-03T12:23:08;7.20;46.80
9393;DHT22;4736;52.508;13.422;2023-04-03T12:26:31;7.40;46.70
9393;DHT22;4736;52.508;13.422;2023-04-03T12:29:56;7.20;46.50
9393;DHT22;4736;52.508;13.422;2023-04-03T12:33:17;7.10;46.50
9393;DHT22;4736;52.508;13.422;2023-04-03T12:36:28;7.00;47.00
9393;DHT22;4736;52.508;13.422;2023-04-03T12:39:52;7.00;47.50
9393;DHT22;4736;52.508;13.422;2023-04-03T12:43:31;7.00;47.20
9393;DHT22;4736;52.508;13.422;2023-04-03T12:46:43;6.90;46.60
9393;DHT22;4736;52.508;13.422;2023-04-03T12:49:49;7.10;46.20
9393;DHT22;4736;52.508;13.422;2023-04-03T12:53:00;7.20;46.10
9393;DHT22;4736;52.508;13.422;2023-04-03T12:56:23;7.20;46.20
9393;DHT22;4736;52.508;13.422;2023-04-03T12:59:28;7.20;45.80
9393;DHT22;4736;52.508;13.422;2023-04-03T13:02:32;6.90;46.00
9393;DHT22;4736;52.508;13.422;2023-04-03T13:05:36;6.90;45.80
9393;DHT22;4736;52.508;13.422;2023-04-03T13:08:48;6.90;46.90
9393;DHT22;4736;52.508;13.422;2023-04-03T13:11:55;7.00;46.00
9393;DHT22;4736;52.508;13.422;2023-04-03T13:15:12;6.80;46.90
9393;DHT22;4736;52.508;13.422;2023-04-03T13:18:23;6.70;47.00
9393;DHT22;4736;52.508;13.422;2023-04-03T13:21:28;6.80;47.20
9393;DHT22;4736;52.508;13.422;2023-04-03T13:24:36;6.80;47.00
9393;DHT22;4736;52.508;13.422;2023-04-03T13:27:42;6.80;47.00
9393;DHT22;4736;52.508;13.422;2023-04-03T13:30:59;6.70;47.60
9393;DHT22;4736;52.508;13.422;2023-04-03T13:34:06;6.80;47.80
9393;DHT22;4736;52.508;13.422;2023-04-03T13:37:20;6.80;47.50
9393;DHT22;4736;52.508;13.422;2023-04-03T13:40:25;6.80;47.30
9393;DHT22;4736;52.508;13.422;2023-04-03T13:43:34;6.90;47.10
9393;DHT22;4736;52.508;13.422;2023-04-03T13:46:39;6.90;47.10
9393;DHT22;4736;52.508;13.422;2023-04-03T13:49:43;6.90;47.00
9393;DHT22;4736;52.508;13.422;2023-04-03T13:52:50;6.70;47.20
9393;DHT22;4736;52.508;13.422;2023-04-03T13:55:59;6.50;47.60
9393;DHT22;4736;52.508;13.422;2023-04-03T13:59:19;6.40;48.70
9393;DHT22;4736;52.508;13.422;2023-04-03T14:02:30;6.20;48.50
9393;DHT22;4736;52.508;13.422;2023-04-03T14:05:35;6.30;48.70
9393;DHT22;4736;52.508;13.422;2023-04-03T14:08:39;6.30;48.90
9393;DHT22;4736;52.508;13.422;2023-04-03T14:11:45;6.30;49.00
9393;DHT22;4736;52.508;13.422;2023-04-03T14:14:49;6.40;48.70
9393;DHT22;4736;52.508;13.422;2023-04-03T14:17:54;6.40;49.00
9393;DHT22;4736;52.508;13.422;2023-04-03T14:20:57;6.50;48.90
9393;DHT22;4736;52.508;13.422;2023-04-03T14:24:00;6.70;48.80
9393;DHT22;4736;52.508;13.422;2023-04-03T14:27:05;6.80;48.20
9393;DHT22;4736;52.508;13.422;2023-04-03T14:30:16;6.70;48.20
9393;DHT22;4736;52.508;13.422;2023-04-03T14:33:22;6.70;48.00
9393;DHT22;4736;52.508;13.422;2023-04-03T14:36:30;6.70;48.30
9393;DHT22;4736;52.508;13.422;2023-04-03T14:39:33;7.20;48.30
9393;DHT22;4736;52.508;13.422;2023-04-03T14:42:37;7.50;48.20
9393;DHT22;4736;52.508;13.422;2023-04-03T14:45:40;7.50;47.50
9393;DHT22;4736;52.508;13.422;2023-04-03T14:48:45;7.40;48.00
9393;DHT22;4736;52.508;13.422;2023-04-03T14:51:49;7.20;47.60
9393;DHT22;4736;52.508;13.422;2023-04-03T14:54:53;6.90;48.00
9393;DHT22;4736;52.508;13.422;2023-04-03T14:57:56;6.70;48.30
9393;DHT22;4736;52.508;13.422;2023-04-03T15:00:59;6.50;49.00
9393;DHT22;4736;52.508;13.422;2023-04-03T15:04:10;6.30;49.30
9393;DHT22;4736;52.508;13.422;2023-04-03T15:07:14;6.10;49.80
9393;DHT22;4736;52.508;13.422;2023-04-03T15:10:20;6.00;49.90
9393;DHT22;4736;52.508;13.422;2023-04-03T15:13:23;5.90;50.40
9393;DHT22;4736;52.508;13.422;2023-04-03T15:16:27;5.80;50.80
9393;DHT22;4736;52.508;13.422;2023-04-03T15:19:36;5.60;51.50
9393;DHT22;4736;52.508;13.422;2023-04-03T15:22:40;5.50;51.60
9393;DHT22;4736;52.508;13.422;2023-04-03T15:25:45;5.50;51.80
9393;DHT22;4736;52.508;13.422;2023-04-03T15:28:50;5.30;52.30
9393;DHT22;4736;52.508;13.422;2023-04-03T15:31:53;5.10;52.80
9393;DHT22;4736;52.508;13.422;2023-04-03T15:34:58;5.10;52.80
9393;DHT22;4736;52.508;13.422;2023-04-03T15:38:01;5.10;52.70
9393;DHT22;4736;52.508;13.422;2023-04-03T15:41:04;5.10;52.90
9393;DHT22;4736;52.508;13.422;2023-04-03T15:44:07;5.00;53.20
9393;DHT22;4736;52.508;13.422;2023-04-03T15:47:10;5.00;53.70
9393;DHT22;4736;52.508;13.422;2023-04-03T15:50:15;4.90;53.60
9393;DHT22;4736;52.508;13.422;2023-04-03T15:53:18;4.90;53.30
9393;DHT22;4736;52.508;13.422;2023-04-03T15:56:21;5.00;53.60
9393;DHT22;4736;52.508;13.422;2023-04-03T15:59:24;5.00;53.20
9393;DHT22;4736;52.508;13.422;2023-04-03T16:02:28;5.00;53.00
9393;DHT22;4736;52.508;13.422;2023-04-03T16:05:32;5.00;53.40
9393;DHT22;4736;52.508;13.422;2023-04-03T16:08:37;4.90;53.20
9393;DHT22;4736;52.508;13.422;2023-04-03T16:11:40;4.70;53.10
9393;DHT22;4736;52.508;13.422;2023-04-03T16:14:43;4.60;53.50
9393;DHT22;4736;52.508;13.422;2023-04-03T16:17:46;4.60;53.40
9393;DHT22;4736;52.508;13.422;2023-04-03T16:20:52;4.60;53.50
9393;DHT22;4736;52.508;13.422;2023-04-03T16:23:56;4.70;53.60
9393;DHT22;4736;52.508;13.422;2023-04-03T16:26:59;4.90;53.40
9393;DHT22;4736;52.508;13.422;2023-04-03T16:30:04;5.00;53.70
9393;DHT22;4736;52.508;13.422;2023-04-03T16:33:08;5.00;53.30
9393;DHT22;4736;52.508;13.422;2023-04-03T16:36:12;4.90;53.70
9393;DHT22;4736;52.508;13.422;2023-04-03T16:39:16;4.90;54.00
9393;DHT22;4736;52.508;13.422;2023-04-03T16:42:19;4.90;53.70
9393;DHT22;4736;52.508;13.422;2023-04-03T16:45:22;4.90;53.70
9393;DHT22;4736;52.508;13.422;2023-04-03T16:48:25;4.80;53.90
9393;DHT22;4736;52.508;13.422;2023-04-03T16:51:29;4.70;54.00
9393;DHT22;4736;52.508;13.422;2023-04-03T16:54:33;4.70;54.30
9393;DHT22;4736;52.508;13.422;2023-04-03T16:57:36;4.70;54.10
9393;DHT22;4736;52.508;13.422;2023-04-03T17:00:39;4.60;54.00
9393;DHT22;4736;52.508;13.422;2023-04-03T17:03:43;4.50;54.30
9393;DHT22;4736;52.508;13.422;2023-04-03T17:06:48;4.50;54.10
9393;DHT22;4736;52.508;13.422;2023-04-03T17:09:52;4.40;54.70
9393;DHT22;4736;52.508;13.422;2023-04-03T17:12:55;4.40;54.90
9393;DHT22;4736;52.508;13.422;2023-04-03T17:15:58;4.30;55.00
9393;DHT22;4736;52.508;13.422;2023-04-03T17:19:02;4.30;55.00
9393;DHT22;4736;52.508;13.422;2023-04-03T17:22:09;4.30;55.30
9393;DHT22;4736;52.508;13.422;2023-04-03T17:25:12;4.30;55.30
9393;DHT22;4736;52.508;13.422;2023-04-03T17:28:16;4.30;55.10
9393;DHT22;4736;52.508;13.422;2023-04-03T17:31:19;4.30;55.50
9393;DHT22;4736;52.508;13.422;2023-04-03T17:34:22;4.20;55.30
9393;DHT22;4736;52.508;13.422;2023-04-03T17:37:27;4.20;55.70
9393;DHT22;4736;52.508;13.422;2023-04-03T17:40:30;4.10;55.70
9393;DHT22;4736;52.508;13.422;2023-04-03T17:43:34;4.10;55.80
9393;DHT22;4736;52.508;13.422;2023-04-03T17:46:39;4.10;55.70
9393;DHT22;4736;52.508;13.422;2023-04-03T17:49:42;4.10;55.90
9393;DHT22;4736;52.508;13.422;2023-04-03T17:52:47;4.10;56.30
9393;DHT22;4736;52.508;13.422;2023-04-03T17:55:50;4.10;56.20
9393;DHT22;4736;52.508;13.422;2023-04-03T17:58:55;4.00;56.50
9393;DHT22;4736;52.508;13.422;2023-04-03T18:01:58;4.00;56.70
9393;DHT22;4736;52.508;13.422;2023-04-03T18:05:02;4.00;57.10
9393;DHT22;4736;52.508;13.422;2023-04-03T18:08:06;3.90;57.40
9393;DHT22;4736;52.508;13.422;2023-04-03T18:11:11;3.90;57.40
9393;DHT22;4736;52.508;13.422;2023-04-03T18:14:17;3.90;57.20
9393;DHT22;4736;52.508;13.422;2023-04-03T18:17:21;3.90;57.00
9393;DHT22;4736;52.508;13.422;2023-04-03T18:20:24;3.90;56.80
9393;DHT22;4736;52.508;13.422;2023-04-03T18:23:31;3.90;56.90
9393;DHT22;4736;52.508;13.422;2023-04-03T18:26:34;3.80;57.20
9393;DHT22;4736;52.508;13.422;2023-04-03T18:29:40;3.80;57.20
9393;DHT22;4736;52.508;13.422;2023-04-03T18:32:43;3.70;57.40
9393;DHT22;4736;52.508;13.422;2023-04-03T18:35:46;3.70;57.40
9393;DHT22;4736;52.508;13.422;2023-04-03T18:38:51;3.70;57.40
9393;DHT22;4736;52.508;13.422;2023-04-03T18:41:55;3.60;57.80
9393;DHT22;4736;52.508;13.422;2023-04-03T18:45:01;3.60;57.80
9393;DHT22;4736;52.508;13.422;2023-04-03T18:48:06;3.50;57.90
9393;DHT22;4736;52.508;13.422;2023-04-03T18:51:10;3.50;57.90
9393;DHT22;4736;52.508;13.422;2023-04-03T18:54:15;3.50;58.20
9393;DHT22;4736;52.508;13.422;2023-04-03T18:57:18;3.40;58.20
9393;DHT22;4736;52.508;13.422;2023-04-03T19:00:21;3.30;58.40
9393;DHT22;4736;52.508;13.422;2023-04-03T19:03:24;3.30;58.50
9393;DHT22;4736;52.508;13.422;2023-04-03T19:06:28;3.30;58.80
9393;DHT22;4736;52.508;13.422;2023-04-03T19:09:32;3.20;59.40
9393;DHT22;4736;52.508;13.422;2023-04-03T19:12:36;3.30;59.30
9393;DHT22;4736;52.508;13.422;2023-04-03T19:15:39;3.30;59.50
9393;DHT22;4736;52.508;13.422;2023-04-03T19:18:42;3.30;59.60
9393;DHT22;4736;52.508;13.422;2023-04-03T19:21:46;3.20;60.10
9393;DHT22;4736;52.508;13.422;2023-04-03T19:24:51;3.10;60.00
9393;DHT22;4736;52.508;13.422;2023-04-03T19:27:54;3.10;60.10
9393;DHT22;4736;52.508;13.422;2023-04-03T19:30:57;3.10;60.40
9393;DHT22;4736;52.508;13.422;2023-04-03T19:34:00;3.10;60.70
9393;DHT22;4736;52.508;13.422;2023-04-03T19:37:04;3.10;60.90
9393;DHT22;4736;52.508;13.422;2023-04-03T19:40:10;3.10;61.00
9393;DHT22;4736;52.508;13.422;2023-04-03T19:43:14;3.10;61.10
9393;DHT22;4736;52.508;13.422;2023-04-03T19:46:18;3.10;61.00
9393;DHT22;4736;52.508;13.422;2023-04-03T19:49:23;3.20;61.00
9393;DHT22;4736;52.508;13.422;2023-04-03T19:52:26;3.10;61.20
9393;DHT22;4736;52.508;13.422;2023-04-03T19:55:31;3.10;61.40
9393;DHT22;4736;52.508;13.422;2023-04-03T19:58:35;3.10;61.40
9393;DHT22;4736;52.508;13.422;2023-04-03T20:01:39;3.10;61.70
9393;DHT22;4736;52.508;13.422;2023-04-03T20:04:42;3.10;61.60
9393;DHT22;4736;52.508;13.422;2023-04-03T20:07:45;3.10;61.50
9393;DHT22;4736;52.508;13.422;2023-04-03T20:10:50;3.10;61.50
9393;DHT22;4736;52.508;13.422;2023-04-03T20:13:54;3.10;61.80
9393;DHT22;4736;52.508;13.422;2023-04-03T20:16:57;3.00;61.80